createdAt,value
2022-10-01T00:02:17.396Z,68.51
2022-10-01T00:07:19.477Z,68.47
2022-10-01T00:12:21.548Z,68.50
2022-10-01T00:17:24.397Z,68.54
2022-10-01T00:22:26.417Z,68.56
2022-10-01T00:27:29.214Z,68.38
2022-10-01T00:32:34.734Z,68.51
2022-10-01T00:37:37.890Z,68.94
2022-10-01T00:42:39.951Z,68.80
2022-10-01T00:47:56.067Z,69.10
2022-10-01T00:53:01.469Z,69.56
2022-10-01T00:58:09.043Z,69.45
2022-10-01T01:03:12.811Z,69.46
2022-10-01T01:08:15.838Z,69.34
2022-10-01T01:13:20.769Z,69.89
2022-10-01T01:18:30.707Z,70.15
2022-10-01T01:23:54.561Z,69.97
2022-10-01T01:29:04.681Z,70.80
2022-10-01T01:34:12.510Z,70.69
2022-10-01T01:39:17.230Z,70.24
2022-10-01T01:44:25.967Z,69.92
2022-10-01T01:49:29.951Z,69.72
2022-10-01T01:54:34.658Z,70.01
2022-10-01T01:59:37.005Z,69.53
2022-10-01T02:04:49.107Z,69.60
2022-10-01T02:10:20.485Z,69.82
2022-10-01T02:15:44.302Z,69.29
2022-10-01T02:20:50.688Z,70.02
2022-10-01T02:25:59.851Z,70.54
2022-10-01T02:31:02.560Z,70.42
2022-10-01T02:36:08.098Z,70.88
2022-10-01T02:41:13.468Z,70.43
2022-10-01T02:46:22.049Z,70.29
2022-10-01T02:51:42.085Z,70.13
2022-10-01T02:57:02.786Z,70.28
2022-10-01T03:02:04.897Z,70.36
2022-10-01T03:07:07.162Z,70.33
2022-10-01T03:12:10.694Z,69.96
2022-10-01T03:17:13.778Z,70.15
2022-10-01T03:22:22.729Z,70.29
2022-10-01T03:27:24.988Z,69.80
2022-10-01T03:32:27.032Z,69.80
2022-10-01T03:37:29.059Z,69.40
2022-10-01T03:42:31.407Z,69.93
2022-10-01T03:47:33.730Z,69.60
2022-10-01T03:52:35.779Z,70.00
2022-10-01T03:57:37.817Z,69.57
2022-10-01T04:02:39.866Z,68.47
2022-10-01T04:07:42.696Z,69.08
2022-10-01T04:12:44.748Z,69.61
2022-10-01T04:17:46.871Z,69.86
2022-10-01T04:22:49.122Z,69.72
2022-10-01T04:27:59.939Z,69.63
2022-10-01T04:33:02.772Z,69.62
2022-10-01T04:38:13.182Z,69.41
2022-10-01T04:43:15.154Z,69.29
2022-10-01T04:48:17.490Z,68.95
2022-10-01T04:53:19.583Z,68.94
2022-10-01T04:58:21.601Z,68.96
2022-10-01T05:03:23.524Z,67.83
2022-10-01T05:08:25.682Z,68.88
2022-10-01T05:13:30.328Z,69.94
2022-10-01T05:18:32.624Z,70.26
2022-10-01T05:23:34.859Z,70.13
2022-10-01T05:28:37.176Z,69.97
2022-10-01T05:33:39.488Z,70.20
2022-10-01T05:38:42.448Z,70.57
2022-10-01T05:43:44.654Z,70.84
2022-10-01T05:48:51.345Z,71.42
2022-10-01T05:53:59.165Z,71.32
2022-10-01T05:59:01.195Z,71.52
2022-10-01T06:04:03.317Z,68.25
2022-10-01T06:09:05.569Z,72.33
2022-10-01T06:14:07.875Z,72.38
2022-10-01T06:19:10.036Z,72.89
2022-10-01T06:24:12.229Z,72.74
2022-10-01T06:29:14.445Z,72.58
2022-10-01T06:34:16.578Z,72.65
2022-10-01T06:39:18.662Z,72.95
2022-10-01T06:44:20.804Z,72.72
2022-10-01T06:49:22.884Z,72.65
2022-10-01T06:54:27.438Z,70.03
2022-10-01T06:59:29.536Z,71.30
2022-10-01T07:04:31.664Z,71.11
2022-10-01T07:09:33.753Z,70.99
2022-10-01T07:14:35.880Z,70.74
2022-10-01T07:19:37.983Z,70.46
2022-10-01T07:24:40.166Z,70.40
2022-10-01T07:29:42.412Z,70.46
2022-10-01T07:34:44.791Z,70.36
2022-10-01T07:39:46.916Z,70.71
2022-10-01T07:44:48.966Z,70.60
2022-10-01T07:49:51.044Z,71.13
2022-10-01T07:54:53.147Z,70.94
2022-10-01T07:59:56.184Z,71.36
2022-10-01T08:05:16.972Z,71.28
2022-10-01T08:10:20.299Z,70.85
2022-10-01T08:15:22.554Z,70.71
2022-10-01T08:20:24.626Z,70.38
2022-10-01T08:25:26.860Z,70.24
2022-10-01T08:30:29.747Z,70.64
2022-10-01T08:35:32.069Z,70.37
2022-10-01T08:40:36.931Z,70.04
2022-10-01T08:45:51.154Z,69.81
2022-10-01T08:51:10.465Z,69.95
2022-10-01T08:56:39.409Z,69.81
2022-10-01T09:01:41.488Z,69.60
2022-10-01T09:06:49.134Z,69.35
2022-10-01T09:12:18.415Z,68.86
2022-10-01T09:17:37.403Z,68.35
2022-10-01T09:23:15.423Z,68.14
2022-10-01T09:28:23.415Z,68.92
2022-10-01T09:33:32.322Z,68.96
2022-10-01T09:38:38.871Z,70.28
2022-10-01T09:43:43.931Z,70.09
2022-10-01T09:49:00.714Z,69.97
2022-10-01T09:54:31.598Z,70.31
2022-10-01T09:59:40.793Z,70.74
2022-10-01T10:04:42.871Z,70.61
2022-10-01T10:09:45.628Z,70.96
2022-10-01T10:14:47.752Z,70.95
2022-10-01T10:19:52.383Z,70.91
2022-10-01T10:24:58.450Z,71.29
2022-10-01T10:30:05.421Z,71.27
2022-10-01T10:35:14.537Z,72.09
2022-10-01T10:40:20.321Z,71.36
2022-10-01T10:45:36.671Z,71.90
2022-10-01T10:50:41.226Z,72.27
2022-10-01T10:56:00.342Z,71.52
2022-10-01T11:01:20.300Z,71.79
2022-10-01T11:06:22.848Z,72.27
2022-10-01T11:11:37.400Z,72.22
2022-10-01T11:16:54.357Z,73.55
2022-10-01T11:22:02.391Z,74.02
2022-10-01T11:27:22.886Z,74.63
2022-10-01T11:32:36.695Z,75.10
2022-10-01T11:37:48.813Z,76.57
2022-10-01T11:42:55.631Z,77.54
2022-10-01T11:48:12.899Z,77.36
2022-10-01T11:53:25.026Z,76.97
2022-10-01T11:58:52.879Z,75.77
2022-10-01T12:04:00.752Z,75.84
2022-10-01T12:09:10.687Z,76.71
2022-10-01T12:14:31.646Z,76.47
2022-10-01T12:19:39.098Z,76.35
2022-10-01T12:24:43.651Z,76.02
2022-10-01T12:30:10.242Z,75.45
2022-10-01T12:35:35.839Z,75.37
2022-10-01T12:40:51.109Z,75.05
2022-10-01T12:46:16.704Z,74.35
2022-10-01T12:51:36.387Z,74.13
2022-10-01T12:56:45.459Z,72.56
2022-10-01T13:01:56.992Z,71.78
2022-10-01T13:07:12.303Z,70.79
2022-10-01T13:12:49.579Z,71.72
2022-10-01T13:18:06.552Z,71.66
2022-10-01T13:23:18.652Z,70.24
2022-10-01T13:28:32.473Z,71.00
2022-10-01T13:33:36.485Z,71.44
2022-10-01T13:38:38.829Z,71.69
2022-10-01T13:43:59.231Z,71.59
2022-10-01T13:49:20.947Z,72.32
2022-10-01T13:54:33.267Z,71.00
2022-10-01T13:59:37.293Z,71.50
2022-10-01T14:04:43.820Z,71.42
2022-10-01T14:09:50.284Z,71.49
2022-10-01T14:15:32.896Z,71.05
2022-10-01T14:20:54.423Z,71.24
2022-10-01T14:26:35.341Z,71.62
2022-10-01T14:31:55.811Z,71.68
2022-10-01T14:36:58.476Z,71.45
2022-10-01T14:42:16.433Z,71.31
2022-10-01T14:47:24.377Z,71.21
2022-10-01T14:52:30.082Z,71.77
2022-10-01T14:57:39.078Z,71.44
2022-10-01T15:03:14.369Z,71.55
2022-10-01T15:08:21.119Z,71.35
2022-10-01T15:13:35.786Z,71.36
2022-10-01T15:18:38.656Z,71.35
2022-10-01T15:23:41.577Z,71.43
2022-10-01T15:28:44.573Z,72.14
2022-10-01T15:33:47.312Z,72.13
2022-10-01T15:38:50.993Z,72.41
2022-10-01T15:43:53.754Z,72.67
2022-10-01T15:49:15.959Z,72.82
2022-10-01T15:54:18.447Z,71.88
2022-10-01T15:59:20.947Z,73.09
2022-10-01T16:04:23.237Z,73.69
2022-10-01T16:09:31.219Z,73.73
2022-10-01T16:14:47.668Z,73.60
2022-10-01T16:19:56.817Z,73.91
2022-10-01T16:25:02.173Z,74.16
2022-10-01T16:30:19.026Z,73.87
2022-10-01T16:35:23.367Z,73.93
2022-10-01T16:40:28.593Z,74.63
2022-10-01T16:45:36.629Z,74.87
2022-10-01T16:50:38.999Z,75.14
2022-10-01T16:55:41.628Z,75.34
2022-10-01T17:00:44.342Z,75.02
2022-10-01T17:05:47.541Z,74.80
2022-10-01T17:11:00.033Z,74.90
2022-10-01T17:16:04.723Z,74.65
2022-10-01T17:21:09.498Z,75.03
2022-10-01T17:26:11.800Z,75.11
2022-10-01T17:31:18.168Z,75.40
2022-10-01T17:36:20.673Z,75.63
2022-10-01T17:41:23.283Z,75.51
2022-10-01T17:46:25.496Z,76.02
2022-10-01T17:51:28.523Z,76.55
2022-10-01T17:56:32.986Z,76.16
2022-10-01T18:01:35.958Z,76.44
2022-10-01T18:06:39.614Z,76.37
2022-10-01T18:11:41.937Z,76.22
2022-10-01T18:16:44.464Z,76.34
2022-10-01T18:21:47.573Z,76.34
2022-10-01T18:26:50.239Z,76.00
2022-10-01T18:31:56.376Z,76.21
2022-10-01T18:37:40.078Z,76.02
2022-10-01T18:42:47.015Z,76.82
2022-10-01T18:48:08.073Z,76.86
2022-10-01T18:53:38.299Z,76.73
2022-10-01T18:59:11.001Z,78.00
2022-10-01T19:04:28.130Z,77.83
2022-10-01T19:09:37.778Z,78.92
2022-10-01T19:15:06.006Z,78.99
2022-10-01T19:20:15.783Z,79.88
2022-10-01T19:25:57.653Z,79.76
2022-10-01T19:31:13.612Z,80.56
2022-10-01T19:36:41.693Z,80.37
2022-10-01T19:42:01.792Z,80.70
2022-10-01T19:47:52.249Z,80.20
2022-10-01T19:52:58.264Z,81.41
2022-10-01T19:58:02.032Z,80.98
2022-10-01T20:03:09.871Z,80.58
2022-10-01T20:08:16.404Z,81.13
2022-10-01T20:13:24.362Z,81.34
2022-10-01T20:18:43.015Z,81.26
2022-10-01T20:24:03.301Z,81.35
2022-10-01T20:29:23.848Z,80.83
2022-10-01T20:35:06.521Z,80.67
2022-10-01T20:40:25.119Z,81.03
2022-10-01T20:45:30.051Z,80.87
2022-10-01T20:50:38.585Z,81.27
2022-10-01T20:55:47.725Z,80.62
2022-10-01T21:00:56.180Z,81.92
2022-10-01T21:06:05.094Z,81.44
2022-10-01T21:11:24.932Z,81.20
2022-10-01T21:16:46.225Z,81.00
2022-10-01T21:22:25.964Z,80.71
2022-10-01T21:28:01.547Z,80.15
2022-10-01T21:33:09.694Z,80.97
2022-10-01T21:38:19.076Z,81.13
2022-10-01T21:43:24.144Z,80.91
2022-10-01T21:48:47.400Z,80.53
2022-10-01T21:53:57.608Z,81.28
2022-10-01T21:59:29.921Z,80.83
2022-10-01T22:04:47.860Z,80.64
2022-10-01T22:09:59.784Z,80.24
2022-10-01T22:15:03.450Z,80.46
2022-10-01T22:20:08.087Z,80.38
2022-10-01T22:25:10.507Z,80.43
2022-10-01T22:30:22.587Z,80.59
2022-10-01T22:36:11.243Z,79.79
2022-10-01T22:41:23.804Z,80.03
2022-10-01T22:46:49.044Z,79.59
2022-10-01T22:52:16.948Z,79.71
2022-10-01T22:57:21.782Z,78.77
2022-10-01T23:02:39.755Z,78.26
2022-10-01T23:07:41.694Z,77.42
2022-10-01T23:12:50.761Z,78.49
2022-10-01T23:18:09.857Z,76.62
2022-10-01T23:23:23.738Z,75.63
2022-10-01T23:29:01.275Z,75.92
2022-10-01T23:34:21.643Z,76.45
2022-10-01T23:39:49.015Z,76.28
2022-10-01T23:44:57.641Z,76.14
2022-10-01T23:50:02.122Z,75.29
2022-10-01T23:55:34.908Z,75.99
